Aquashicola, Pennsylvania
Current Conditions -  °F | °C
As of 10:51 AM on Thursday 23 Oct 2014 (Local Time) from KABE Reporting Station
Overcast Overcast  
Wind Chill: 51°   Ceiling: 4700
Heat Index: 51°   Visibility: 10mi
Dew Point: 42°   Wind: 14mph
Humidity: 71%   Direction: 330°NNW
Pressure: 29.81"   Gusts: 22mph
Location:  40.81°N, 75.59°W
Report Text: KABE 231451Z 33012G19KT 10SM OVC047 11/06 A2981 RMK AO2 RAB1357E08 SLP095 P0000 60000 T01060056 51005
Loading
Personal Weather Stations






























Interactive Weather Map
Tropical Storm Tracking
New forecast layout! Learn more

10-Day Weather Forecast

Advertisements
Track Severe Weather on mobile